Terminal Aerodrome Forecast
Issued by NWS Duluth, MN

Home | Current Version | Previous Version | Text Only | Print | Product List | Glossary On
Versions: 1 2 3 4 5 6 7 8 9 10 11 12 13 14 15 16 17
634
FTUS43 KDLH 241730
TAFDLH
TAF
KDLH 241730Z 2418/2518 14004KT P6SM BKN250
     FM242200 09007KT P6SM BKN027
     FM250000 08011KT 1 1/2SM -SN OVC008
     FM250200 08014KT 1/4SM +SN OVC003
     FM250800 02008KT 1SM -SN OVC011
     FM251100 31010KT P6SM -SN OVC025
     FM251300 29013G19KT P6SM BKN027=

USA.gov is the U.S. government's official web portal to all federal, state and local government web resources and services.